Pagrindinis puslapis
METAR-TAF:

METAR-TAF

Oro uostai :

Rygge, Norvegija

platuma: 59-23N, ilguma: 010-47E, Aukštis: 5 m

Dabartinis oras

Ataskaita buvo paskelbta 18 minutes, ne 22:20 UTC
Vėjas 12 kt iš Pietų
Temperatūra 17°C
Drėgmė 82%
Slėgis 1017 hPa
Matomumas 10 km arba daugiau

METAR: ENRY 022220Z 18012KT 9999NDV BKN013/// 17/14 Q1017

Laikas: 00:38 (22:38 UTC)

Prognozė

Prognozė galioja nuo 02 metu 18 UTC su 03 metu 18 UTC
Vėjas 15 kt iš Pietų/Pietvakarių
Matomumas 10 km arba daugiau
nėra debesų žemiau 1500 m ir nėra kamuolinių lietaus debesų
Laikinai
nuo 03 metu 06 UTC su 03 metu 13 UTC
Su prošvaistėmis ne aukštis 1200 ft
Mažai debesys ne aukštis 2000 ft, Liūtiniai kamuoliniai debesys.
lietus

TAF: ENRY 0218/0318 20015KT CAVOK TEMPO 0306/0313 SHRA BKN012 FEW020CB

Orai ataskaitas ir orų prognozės (METAR, TAF).

turimą stotys yra geltonos ir raudonos taškus žemėlapyje.

Perkelti pele per norėdami pamatyti stoties vardą.

Tada spustelėkite, norėdami matyti oro stebėjimo ir prognozės.

Norėdami pakeisti žemėlapį: spustelėkite ant žalios mygtukų su juodo kryžiaus žemyn,; žalią mygtuką su brūkšneliu, jei norite nutolinti; arba žalių rodyklių gretimoms žemėlapius.


METAR-TAF: